createdAt,value
2023-11-30T00:00:27.141Z,74.58
2023-11-30T00:03:49.287Z,74.50
2023-11-30T00:06:51.195Z,74.65
2023-11-30T00:09:53.059Z,74.73
2023-11-30T00:12:54.933Z,74.80
2023-11-30T00:15:56.826Z,74.89
2023-11-30T00:18:58.711Z,74.90
2023-11-30T00:22:00.692Z,75.12
2023-11-30T00:25:02.663Z,75.26
2023-11-30T00:28:04.756Z,75.31
2023-11-30T00:31:06.603Z,75.43
2023-11-30T00:34:08.565Z,75.45
2023-11-30T00:37:11.806Z,75.52
2023-11-30T00:40:13.828Z,75.66
2023-11-30T00:43:15.830Z,75.69
2023-11-30T00:46:17.850Z,75.75
2023-11-30T00:49:19.719Z,75.85
2023-11-30T00:52:21.728Z,75.82
2023-11-30T00:55:23.642Z,75.89
2023-11-30T00:58:25.640Z,75.99
2023-11-30T01:01:27.574Z,76.07
2023-11-30T01:04:29.577Z,76.19
2023-11-30T01:07:31.432Z,76.31
2023-11-30T01:10:33.468Z,76.37
2023-11-30T01:13:35.603Z,76.40
2023-11-30T01:16:37.498Z,76.37
2023-11-30T01:19:39.347Z,76.39
2023-11-30T01:22:41.162Z,76.43
2023-11-30T01:25:42.851Z,76.47
2023-11-30T01:28:44.650Z,76.51
2023-11-30T01:31:46.454Z,76.50
2023-11-30T01:34:48.510Z,76.53
2023-11-30T01:37:50.262Z,76.54
2023-11-30T01:40:51.972Z,76.61
2023-11-30T01:43:53.685Z,76.64
2023-11-30T01:46:55.508Z,76.68
2023-11-30T01:49:57.552Z,76.67
2023-11-30T01:52:59.306Z,76.65
2023-11-30T01:56:01.142Z,76.70
2023-11-30T01:59:03.372Z,76.74
2023-11-30T02:02:05.377Z,76.80
2023-11-30T02:05:07.415Z,76.80
2023-11-30T02:08:09.184Z,76.83
2023-11-30T02:11:11.124Z,76.85
2023-11-30T02:14:12.874Z,76.86
2023-11-30T02:17:14.578Z,76.86
2023-11-30T02:20:17.005Z,76.88
2023-11-30T02:23:18.705Z,76.88
2023-11-30T02:26:20.495Z,76.86
2023-11-30T02:29:22.224Z,76.86
2023-11-30T02:32:24.139Z,76.85
2023-11-30T02:35:25.856Z,76.87
2023-11-30T02:38:27.538Z,76.83
2023-11-30T02:41:29.354Z,76.85
2023-11-30T02:44:31.050Z,76.83
2023-11-30T02:47:32.797Z,76.81
2023-11-30T02:50:34.489Z,76.83
2023-11-30T02:53:36.197Z,76.84
2023-11-30T02:56:41.423Z,76.87
2023-11-30T02:59:43.150Z,76.84
2023-11-30T03:02:45.361Z,76.82
2023-11-30T03:05:47.204Z,76.82
2023-11-30T03:08:48.883Z,76.84
2023-11-30T03:11:50.558Z,76.86
2023-11-30T03:14:52.377Z,76.89
2023-11-30T03:17:54.219Z,76.91
2023-11-30T03:20:56.010Z,76.95
2023-11-30T03:23:58.097Z,76.96
2023-11-30T03:26:59.842Z,76.99
2023-11-30T03:30:02.056Z,77.01
2023-11-30T03:33:03.944Z,77.03
2023-11-30T03:36:06.243Z,77.03
2023-11-30T03:39:07.986Z,77.01
2023-11-30T03:42:10.840Z,77.00
2023-11-30T03:45:12.523Z,77.01
2023-11-30T03:48:14.327Z,77.03
2023-11-30T03:51:16.135Z,77.07
2023-11-30T03:54:17.956Z,77.06
2023-11-30T03:57:19.796Z,77.10
2023-11-30T04:00:21.591Z,77.12
2023-11-30T04:03:23.297Z,77.12
2023-11-30T04:06:25.330Z,77.11
2023-11-30T04:09:27.054Z,77.09
2023-11-30T04:12:29.514Z,77.08
2023-11-30T04:15:31.231Z,77.05
2023-11-30T04:18:33.320Z,77.03
2023-11-30T04:21:35.153Z,77.04
2023-11-30T04:24:36.950Z,77.02
2023-11-30T04:27:39.375Z,77.03
2023-11-30T04:30:41.384Z,77.05
2023-11-30T04:33:43.169Z,77.10
2023-11-30T04:36:45.337Z,77.07
2023-11-30T04:39:48.268Z,77.08
2023-11-30T04:42:50.323Z,77.08
2023-11-30T04:45:52.025Z,77.09
2023-11-30T04:48:54.935Z,77.15
2023-11-30T04:51:56.642Z,77.20
2023-11-30T04:54:58.381Z,77.24
2023-11-30T04:58:00.102Z,77.26
2023-11-30T05:01:01.813Z,77.25
2023-11-30T05:04:04.221Z,77.24
2023-11-30T05:07:06.068Z,77.28
2023-11-30T05:10:07.943Z,77.28
2023-11-30T05:13:09.670Z,77.31
2023-11-30T05:16:11.501Z,77.32
2023-11-30T05:19:13.178Z,77.34
2023-11-30T05:22:14.835Z,77.33
2023-11-30T05:25:16.493Z,77.33
2023-11-30T05:28:18.165Z,77.32
2023-11-30T05:31:19.879Z,77.34
2023-11-30T05:34:21.560Z,77.37
2023-11-30T05:37:23.233Z,77.40
2023-11-30T05:40:25.297Z,77.42
2023-11-30T05:43:27.002Z,77.41
2023-11-30T05:46:28.727Z,77.41
2023-11-30T05:49:30.515Z,77.44
2023-11-30T05:52:32.251Z,77.47
2023-11-30T05:55:34.000Z,77.48
2023-11-30T05:58:36.536Z,77.44
2023-11-30T06:01:38.574Z,77.40
2023-11-30T06:04:52.609Z,77.40
2023-11-30T06:07:54.428Z,77.39
2023-11-30T06:10:56.084Z,77.40
2023-11-30T06:13:57.967Z,77.33
2023-11-30T06:16:59.670Z,77.34
2023-11-30T06:20:03.921Z,77.29
2023-11-30T06:23:07.786Z,77.36
2023-11-30T06:26:09.531Z,77.40
2023-11-30T06:29:16.339Z,77.34
2023-11-30T06:32:18.053Z,77.34
2023-11-30T06:35:20.531Z,77.30
2023-11-30T06:38:22.241Z,77.28
2023-11-30T06:41:23.992Z,77.30
2023-11-30T06:44:26.414Z,77.28
2023-11-30T06:47:28.159Z,77.26
2023-11-30T06:50:29.845Z,77.25
2023-11-30T06:53:31.530Z,77.26
2023-11-30T06:56:33.396Z,77.27
2023-11-30T06:59:35.233Z,77.28
2023-11-30T07:02:37.228Z,77.32
2023-11-30T07:05:38.906Z,77.39
2023-11-30T07:08:40.722Z,77.44
2023-11-30T07:11:43.100Z,77.48
2023-11-30T07:14:50.959Z,77.46
2023-11-30T07:17:53.605Z,77.52
2023-11-30T07:20:57.357Z,77.53
2023-11-30T07:24:00.242Z,77.58
2023-11-30T07:27:02.043Z,77.61
2023-11-30T07:30:08.321Z,77.66
2023-11-30T07:33:10.351Z,77.74
2023-11-30T07:36:14.085Z,77.82
2023-11-30T07:39:16.121Z,77.87
2023-11-30T07:42:28.862Z,77.89
2023-11-30T07:45:34.931Z,78.00
2023-11-30T07:48:37.017Z,78.02
2023-11-30T07:51:38.752Z,78.20
2023-11-30T07:54:41.209Z,78.25
2023-11-30T07:57:43.079Z,78.47
2023-11-30T08:00:44.837Z,78.67
2023-11-30T08:03:47.638Z,78.78
2023-11-30T08:06:49.824Z,78.89
2023-11-30T08:09:56.326Z,79.01
2023-11-30T08:13:05.392Z,79.08
2023-11-30T08:16:09.878Z,79.17
2023-11-30T08:19:14.566Z,79.17
2023-11-30T08:22:16.475Z,79.21
2023-11-30T08:25:18.252Z,79.21
2023-11-30T08:28:20.918Z,79.18
2023-11-30T08:31:22.713Z,79.17
2023-11-30T08:34:24.521Z,79.14
2023-11-30T08:37:26.323Z,79.11
2023-11-30T08:40:28.236Z,79.03
2023-11-30T08:43:30.452Z,79.01
2023-11-30T08:46:32.151Z,78.93
2023-11-30T08:49:33.918Z,78.87
2023-11-30T08:52:36.004Z,78.69
2023-11-30T08:55:37.670Z,78.48
2023-11-30T08:58:39.441Z,78.41
2023-11-30T09:01:41.281Z,78.10
2023-11-30T09:04:43.192Z,77.80
2023-11-30T09:07:45.048Z,77.53
2023-11-30T09:10:47.638Z,77.29
2023-11-30T09:13:49.444Z,77.04
2023-11-30T09:16:51.247Z,76.78
2023-11-30T09:19:53.084Z,76.50
2023-11-30T09:22:54.883Z,76.30
2023-11-30T09:25:57.181Z,76.05
2023-11-30T09:28:59.126Z,75.84
2023-11-30T09:32:01.099Z,75.49
2023-11-30T09:35:04.477Z,75.17
2023-11-30T09:38:06.194Z,74.87
2023-11-30T09:41:14.125Z,74.60
2023-11-30T09:44:16.098Z,74.41
2023-11-30T09:47:18.297Z,74.06
2023-11-30T09:50:20.273Z,74.00
2023-11-30T09:53:22.163Z,74.17
2023-11-30T09:56:28.932Z,73.80
2023-11-30T09:59:31.136Z,73.51
2023-11-30T10:02:33.058Z,73.21
2023-11-30T10:05:34.998Z,73.33
2023-11-30T10:08:36.766Z,73.01
2023-11-30T10:11:39.120Z,72.69
2023-11-30T10:14:40.913Z,72.52
2023-11-30T10:17:47.084Z,72.24
2023-11-30T10:20:49.903Z,71.80
2023-11-30T10:23:52.200Z,71.48
2023-11-30T10:26:59.748Z,71.22
2023-11-30T10:30:04.825Z,70.74
2023-11-30T10:33:13.667Z,70.16
2023-11-30T10:36:18.971Z,70.12
2023-11-30T10:39:24.208Z,69.49
2023-11-30T10:42:27.607Z,68.84
2023-11-30T10:45:36.466Z,68.32
2023-11-30T10:48:39.665Z,67.69
2023-11-30T10:51:42.610Z,67.00
2023-11-30T10:54:55.297Z,66.77
2023-11-30T10:57:58.565Z,66.43
2023-11-30T11:01:01.077Z,66.01
2023-11-30T11:04:07.549Z,66.09
2023-11-30T11:07:15.618Z,65.23
2023-11-30T11:10:32.173Z,64.85
2023-11-30T11:13:35.327Z,64.57
2023-11-30T11:16:44.813Z,64.11
2023-11-30T11:19:47.270Z,63.99
2023-11-30T11:23:13.826Z,63.42
2023-11-30T11:26:16.103Z,63.27
2023-11-30T11:29:24.335Z,62.82
2023-11-30T11:32:35.167Z,62.62
2023-11-30T11:35:37.197Z,62.26
2023-11-30T11:38:39.129Z,61.90
2023-11-30T11:41:41.058Z,61.99
2023-11-30T11:44:42.870Z,62.01
2023-11-30T11:47:44.997Z,61.95
2023-11-30T11:50:56.951Z,61.89
2023-11-30T11:53:59.006Z,61.77
2023-11-30T11:57:02.201Z,61.81
2023-11-30T12:00:10.574Z,61.52
2023-11-30T12:03:12.630Z,61.31
2023-11-30T12:06:14.954Z,61.34
2023-11-30T12:09:16.832Z,61.01
2023-11-30T12:12:18.649Z,61.02
2023-11-30T12:15:20.447Z,60.85
2023-11-30T12:18:22.498Z,60.65
2023-11-30T12:21:25.064Z,60.54
2023-11-30T12:24:26.887Z,60.43
2023-11-30T12:27:29.662Z,60.49
2023-11-30T12:30:31.868Z,60.68
2023-11-30T12:33:33.731Z,60.73
2023-11-30T12:36:35.652Z,60.77
2023-11-30T12:39:38.017Z,60.81
2023-11-30T12:42:42.307Z,61.00
2023-11-30T12:45:44.402Z,61.16
2023-11-30T12:48:46.568Z,61.36
2023-11-30T12:51:49.391Z,61.53
2023-11-30T12:54:52.342Z,61.53
2023-11-30T12:57:54.328Z,61.59
2023-11-30T13:00:56.226Z,61.39
2023-11-30T13:03:59.288Z,61.36
2023-11-30T13:07:01.300Z,61.62
2023-11-30T13:10:03.285Z,61.74
2023-11-30T13:13:06.148Z,61.83
2023-11-30T13:16:08.408Z,61.90
2023-11-30T13:19:10.391Z,62.22
2023-11-30T13:22:12.233Z,62.32
2023-11-30T13:25:14.699Z,62.40
2023-11-30T13:28:16.795Z,62.37
2023-11-30T13:31:18.801Z,62.41
2023-11-30T13:34:20.556Z,62.80
2023-11-30T13:37:22.616Z,63.28
2023-11-30T13:40:25.467Z,63.67
2023-11-30T13:43:27.329Z,63.88
2023-11-30T13:46:29.087Z,63.97
2023-11-30T13:49:31.173Z,63.93
2023-11-30T13:52:32.961Z,63.93
2023-11-30T13:55:34.784Z,64.53
2023-11-30T13:58:36.594Z,64.87
2023-11-30T14:01:38.752Z,64.99
2023-11-30T14:04:40.626Z,65.09
2023-11-30T14:07:43.033Z,65.54
2023-11-30T14:10:44.873Z,65.49
2023-11-30T14:13:46.602Z,65.47
2023-11-30T14:16:48.987Z,65.25
2023-11-30T14:19:51.451Z,65.18
2023-11-30T14:22:53.941Z,65.10
2023-11-30T14:25:57.175Z,65.00
2023-11-30T14:28:58.877Z,65.20
2023-11-30T14:32:06.937Z,65.26
2023-11-30T14:35:10.257Z,65.91
2023-11-30T14:38:12.658Z,66.19
2023-11-30T14:41:16.796Z,66.69
2023-11-30T14:44:18.759Z,66.99
2023-11-30T14:47:25.925Z,67.20
2023-11-30T14:50:27.728Z,67.40
2023-11-30T14:53:29.937Z,67.54
2023-11-30T14:56:32.078Z,67.67
2023-11-30T14:59:33.981Z,67.62
2023-11-30T15:02:35.880Z,67.74
2023-11-30T15:05:38.112Z,67.88
2023-11-30T15:08:39.730Z,67.99
2023-11-30T15:11:43.715Z,67.92
2023-11-30T15:14:45.559Z,67.81
2023-11-30T15:17:49.930Z,67.74
2023-11-30T15:20:51.697Z,67.80
2023-11-30T15:23:53.516Z,67.86
2023-11-30T15:26:56.624Z,67.85
2023-11-30T15:29:59.726Z,67.91
2023-11-30T15:33:01.465Z,67.92
2023-11-30T15:36:05.530Z,67.96
2023-11-30T15:39:16.194Z,68.04
2023-11-30T15:42:17.961Z,68.06
2023-11-30T15:45:23.604Z,68.17
2023-11-30T15:48:25.562Z,68.28
2023-11-30T15:51:27.318Z,68.52
2023-11-30T15:54:28.953Z,68.70
2023-11-30T15:57:30.702Z,68.82
2023-11-30T16:00:33.161Z,68.83
2023-11-30T16:03:35.004Z,68.84
2023-11-30T16:06:37.056Z,68.90
2023-11-30T16:09:38.888Z,68.98
2023-11-30T16:12:40.626Z,68.92
2023-11-30T16:15:42.440Z,68.98
2023-11-30T16:18:44.397Z,68.95
2023-11-30T16:21:46.290Z,68.88
2023-11-30T16:24:48.179Z,68.90
2023-11-30T16:27:49.987Z,69.12
2023-11-30T16:30:51.720Z,69.26
2023-11-30T16:33:53.847Z,69.39
2023-11-30T16:36:56.153Z,69.53
2023-11-30T16:39:58.170Z,69.50
2023-11-30T16:43:00.527Z,69.59
2023-11-30T16:46:03.172Z,69.79
2023-11-30T16:49:05.581Z,69.96
2023-11-30T16:52:08.570Z,70.09
2023-11-30T16:55:12.723Z,70.20
2023-11-30T16:58:14.556Z,70.24
2023-11-30T17:01:46.185Z,70.32
2023-11-30T17:04:48.027Z,70.16
2023-11-30T17:07:50.073Z,70.21
2023-11-30T17:10:53.039Z,70.35
2023-11-30T17:13:54.856Z,70.47
2023-11-30T17:16:56.807Z,70.61
2023-11-30T17:19:58.994Z,70.74
2023-11-30T17:23:00.790Z,70.87
2023-11-30T17:26:02.964Z,70.84
2023-11-30T17:29:04.669Z,70.81
2023-11-30T17:32:07.351Z,70.73
2023-11-30T17:35:09.665Z,70.93
2023-11-30T17:38:11.431Z,71.03
2023-11-30T17:41:13.356Z,70.96
2023-11-30T17:44:15.171Z,70.95
2023-11-30T17:47:17.012Z,70.96
2023-11-30T17:50:18.962Z,70.99
2023-11-30T17:53:20.877Z,71.00
2023-11-30T17:56:22.737Z,71.01
2023-11-30T17:59:27.254Z,71.19
2023-11-30T18:02:29.150Z,71.27
2023-11-30T18:05:30.980Z,71.35
2023-11-30T18:08:33.281Z,71.24
2023-11-30T18:11:35.614Z,71.32
2023-11-30T18:14:38.273Z,71.48
2023-11-30T18:17:40.260Z,71.56
2023-11-30T18:20:41.964Z,71.55
2023-11-30T18:23:44.414Z,71.57
2023-11-30T18:26:48.368Z,71.59
2023-11-30T18:29:50.238Z,71.63
2023-11-30T18:32:52.014Z,71.75
2023-11-30T18:35:53.661Z,71.80
2023-11-30T18:38:55.442Z,71.83
2023-11-30T18:41:57.249Z,71.83
2023-11-30T18:44:58.978Z,71.81
2023-11-30T18:48:00.822Z,71.75
2023-11-30T18:51:03.113Z,71.75
2023-11-30T18:54:04.994Z,71.78
2023-11-30T18:57:07.076Z,71.73
2023-11-30T19:00:09.878Z,71.77
2023-11-30T19:03:11.740Z,71.83
2023-11-30T19:06:15.919Z,71.84
2023-11-30T19:09:18.223Z,71.76
2023-11-30T19:12:19.920Z,71.78
2023-11-30T19:15:25.168Z,71.72
2023-11-30T19:18:30.549Z,71.70
2023-11-30T19:21:32.556Z,71.74
2023-11-30T19:24:34.517Z,71.82
2023-11-30T19:27:36.339Z,71.79
2023-11-30T19:30:38.169Z,71.78
2023-11-30T19:33:40.275Z,71.80
2023-11-30T19:36:42.437Z,71.86
2023-11-30T19:39:44.326Z,71.88
2023-11-30T19:42:46.184Z,71.83
2023-11-30T19:45:47.994Z,71.86
2023-11-30T19:48:49.917Z,71.97
2023-11-30T19:51:52.501Z,72.02
2023-11-30T19:54:54.395Z,72.07
2023-11-30T19:57:56.176Z,72.11
2023-11-30T20:00:57.954Z,72.15
2023-11-30T20:03:59.964Z,72.18
2023-11-30T20:07:01.872Z,72.24
2023-11-30T20:10:04.121Z,72.21
2023-11-30T20:13:05.824Z,72.26
2023-11-30T20:16:11.169Z,72.34
2023-11-30T20:19:12.927Z,72.36
2023-11-30T20:22:14.814Z,72.38
2023-11-30T20:25:17.381Z,72.45
2023-11-30T20:28:19.387Z,72.52
2023-11-30T20:31:21.163Z,72.58
2023-11-30T20:34:23.239Z,72.60
2023-11-30T20:37:25.432Z,72.58
2023-11-30T20:40:26.990Z,72.60
2023-11-30T20:43:29.172Z,72.55
2023-11-30T20:46:30.772Z,72.63
2023-11-30T20:49:32.517Z,72.59
2023-11-30T20:52:34.714Z,72.61
2023-11-30T20:55:36.750Z,72.66
2023-11-30T20:58:39.460Z,72.75
2023-11-30T21:01:41.633Z,72.82
2023-11-30T21:04:43.515Z,72.86
2023-11-30T21:07:45.604Z,72.89
2023-11-30T21:10:47.440Z,72.86
2023-11-30T21:13:49.152Z,72.90
2023-11-30T21:16:51.257Z,72.88
2023-11-30T21:19:52.878Z,72.88
2023-11-30T21:22:57.460Z,72.84
2023-11-30T21:26:09.994Z,72.87
2023-11-30T21:29:12.553Z,72.95
2023-11-30T21:32:14.714Z,73.03
2023-11-30T21:35:16.611Z,73.07
2023-11-30T21:38:18.570Z,73.02
2023-11-30T21:41:20.929Z,73.05
2023-11-30T21:44:22.776Z,73.09
2023-11-30T21:47:24.502Z,73.07
2023-11-30T21:50:27.159Z,73.07
2023-11-30T21:53:32.624Z,73.15
2023-11-30T21:56:34.425Z,73.25
2023-11-30T21:59:37.258Z,73.26
2023-11-30T22:02:40.621Z,73.27
2023-11-30T22:05:42.728Z,73.34
2023-11-30T22:08:45.912Z,73.38
2023-11-30T22:11:47.574Z,73.40
2023-11-30T22:14:49.275Z,73.46
2023-11-30T22:17:51.116Z,73.45
2023-11-30T22:20:53.137Z,73.45
2023-11-30T22:23:55.472Z,73.49
2023-11-30T22:26:57.223Z,73.55
2023-11-30T22:29:58.898Z,73.62
2023-11-30T22:33:00.653Z,73.70
2023-11-30T22:36:02.410Z,73.73
2023-11-30T22:39:04.159Z,73.79
2023-11-30T22:42:06.440Z,73.81
2023-11-30T22:45:08.243Z,73.77
2023-11-30T22:48:10.054Z,73.69
2023-11-30T22:51:12.834Z,73.67
2023-11-30T22:54:14.802Z,73.74
2023-11-30T22:57:17.306Z,73.79
2023-11-30T23:00:24.162Z,73.86
2023-11-30T23:03:26.159Z,73.97
2023-11-30T23:06:28.146Z,74.03
2023-11-30T23:09:29.981Z,74.08
2023-11-30T23:12:31.856Z,74.10
2023-11-30T23:15:33.606Z,74.11
2023-11-30T23:18:35.582Z,74.15
2023-11-30T23:21:37.532Z,74.22
2023-11-30T23:24:42.211Z,74.20
2023-11-30T23:27:44.015Z,74.21
2023-11-30T23:30:45.745Z,74.23
2023-11-30T23:33:47.669Z,74.25
2023-11-30T23:36:49.390Z,74.28
2023-11-30T23:39:51.401Z,74.27
2023-11-30T23:42:53.487Z,74.22
2023-11-30T23:45:55.196Z,74.22
2023-11-30T23:48:57.755Z,74.23
2023-11-30T23:51:59.411Z,74.20
2023-11-30T23:55:01.756Z,74.21
2023-11-30T23:58:03.642Z,74.22
